createdAt,value
2019-05-05T00:00:17.306Z,0.00
2019-05-05T00:01:17.273Z,0.00
2019-05-05T00:02:17.275Z,0.00
2019-05-05T00:03:17.251Z,0.00
2019-05-05T00:04:17.240Z,0.00
2019-05-05T00:05:17.244Z,0.00
2019-05-05T00:06:17.217Z,0.00
2019-05-05T00:07:17.204Z,0.00
2019-05-05T00:08:17.194Z,0.00
2019-05-05T00:09:17.183Z,0.00
2019-05-05T00:10:17.199Z,0.00
2019-05-05T00:11:17.158Z,0.00
2019-05-05T00:12:17.149Z,0.00
2019-05-05T00:13:17.141Z,0.00
2019-05-05T00:14:17.126Z,0.00
2019-05-05T00:15:17.120Z,0.00
2019-05-05T00:16:17.130Z,0.00
2019-05-05T00:17:17.091Z,0.00
2019-05-05T00:18:17.087Z,0.00
2019-05-05T00:19:29.854Z,0.00
2019-05-05T00:20:18.072Z,0.00
2019-05-05T00:21:17.046Z,0.00
2019-05-05T00:22:17.042Z,0.00
2019-05-05T00:23:17.023Z,0.00
2019-05-05T00:24:17.017Z,0.00
2019-05-05T00:25:17.023Z,0.00
2019-05-05T00:26:16.988Z,0.00
2019-05-05T00:27:16.977Z,0.00
2019-05-05T00:28:16.968Z,0.00
2019-05-05T00:29:16.959Z,0.00
2019-05-05T00:30:16.963Z,0.00
2019-05-05T00:31:16.942Z,0.00
2019-05-05T00:32:16.921Z,0.00
2019-05-05T00:33:16.913Z,0.00
2019-05-05T00:34:16.899Z,0.00
2019-05-05T00:35:16.905Z,0.00
2019-05-05T00:36:16.884Z,0.00
2019-05-05T00:37:16.864Z,0.00
2019-05-05T00:38:16.856Z,0.00
2019-05-05T00:39:16.843Z,0.00
2019-05-05T00:40:16.848Z,0.00
2019-05-05T00:41:16.830Z,0.00
2019-05-05T00:42:16.809Z,0.00
2019-05-05T00:43:16.800Z,0.00
2019-05-05T00:44:16.787Z,0.00
2019-05-05T00:45:16.803Z,0.00
2019-05-05T00:46:16.762Z,0.00
2019-05-05T00:47:16.751Z,0.00
2019-05-05T00:48:16.743Z,0.00
2019-05-05T00:49:16.729Z,0.00
2019-05-05T00:50:16.718Z,0.00
2019-05-05T00:51:16.728Z,0.00
2019-05-05T00:52:16.705Z,0.00
2019-05-05T00:53:16.683Z,0.00
2019-05-05T00:54:16.672Z,0.00
2019-05-05T00:55:16.677Z,0.00
2019-05-05T00:56:16.652Z,0.00
2019-05-05T00:57:16.640Z,0.00
2019-05-05T00:58:16.633Z,0.00
2019-05-05T00:59:16.618Z,0.00
2019-05-05T01:00:16.633Z,0.00
2019-05-05T01:01:16.598Z,0.00
2019-05-05T01:02:16.582Z,0.00
2019-05-05T01:03:16.580Z,0.00
2019-05-05T01:04:16.573Z,0.00
2019-05-05T01:05:16.548Z,0.00
2019-05-05T01:06:16.556Z,0.00
2019-05-05T01:07:16.527Z,0.00
2019-05-05T01:08:16.518Z,0.00
2019-05-05T01:09:16.504Z,0.00
2019-05-05T01:10:16.493Z,0.00
2019-05-05T01:11:16.503Z,0.00
2019-05-05T01:12:16.471Z,0.00
2019-05-05T01:13:16.457Z,0.00
2019-05-05T01:14:16.456Z,0.00
2019-05-05T01:15:16.434Z,0.00
2019-05-05T01:16:16.441Z,0.00
2019-05-05T01:17:16.419Z,0.00
2019-05-05T01:18:16.400Z,0.00
2019-05-05T01:19:16.391Z,0.00
2019-05-05T01:20:16.378Z,0.00
2019-05-05T01:21:16.383Z,0.00
2019-05-05T01:22:16.356Z,0.00
2019-05-05T01:23:16.346Z,0.00
2019-05-05T01:24:16.346Z,0.00
2019-05-05T01:25:16.326Z,0.00
2019-05-05T01:26:16.345Z,0.00
2019-05-05T01:27:16.300Z,0.00
2019-05-05T01:28:16.289Z,0.00
2019-05-05T01:29:16.279Z,0.00
2019-05-05T01:30:16.266Z,0.00
2019-05-05T01:31:16.259Z,0.00
2019-05-05T01:32:16.266Z,0.00
2019-05-05T01:33:24.959Z,0.00
2019-05-05T01:34:16.220Z,0.00
2019-05-05T01:35:16.212Z,0.00
2019-05-05T01:36:16.198Z,0.00
2019-05-05T01:37:16.205Z,0.00
2019-05-05T01:38:16.178Z,0.00
2019-05-05T01:39:16.164Z,0.00
2019-05-05T01:40:16.153Z,0.00
2019-05-05T01:41:16.163Z,0.00
2019-05-05T01:42:16.133Z,0.00
2019-05-05T01:43:16.125Z,0.00
2019-05-05T01:44:16.107Z,0.00
2019-05-05T01:45:16.113Z,0.00
2019-05-05T01:46:16.089Z,0.00
2019-05-05T01:47:16.081Z,0.00
2019-05-05T01:48:16.072Z,0.00
2019-05-05T01:49:16.051Z,0.00
2019-05-05T01:50:20.881Z,0.00
2019-05-05T01:51:17.026Z,0.00
2019-05-05T01:52:16.017Z,0.00
2019-05-05T01:53:16.007Z,0.00
2019-05-05T01:54:15.996Z,0.00
2019-05-05T01:55:16.017Z,0.00
2019-05-05T01:56:15.974Z,0.00
2019-05-05T01:57:15.961Z,0.00
2019-05-05T01:58:15.953Z,0.00
2019-05-05T01:59:15.946Z,0.00
2019-05-05T02:00:15.928Z,0.00
2019-05-05T02:01:15.937Z,0.00
2019-05-05T02:02:15.906Z,0.00
2019-05-05T02:03:15.895Z,0.00
2019-05-05T02:04:15.886Z,0.00
2019-05-05T02:05:15.898Z,0.00
2019-05-05T02:06:15.862Z,0.00
2019-05-05T02:07:15.849Z,0.00
2019-05-05T02:08:15.844Z,0.00
2019-05-05T02:09:16.069Z,0.00
2019-05-05T02:10:15.833Z,0.00
2019-05-05T02:11:15.804Z,0.00
2019-05-05T02:12:16.060Z,0.00
2019-05-05T02:13:16.141Z,0.00
2019-05-05T02:14:15.770Z,0.00
2019-05-05T02:15:15.778Z,0.00
2019-05-05T02:16:15.747Z,0.00
2019-05-05T02:17:15.739Z,0.00
2019-05-05T02:18:15.725Z,0.00
2019-05-05T02:19:15.713Z,0.00
2019-05-05T02:20:28.429Z,0.00
2019-05-05T02:21:16.691Z,0.00
2019-05-05T02:22:15.681Z,0.00
2019-05-05T02:23:15.673Z,0.00
2019-05-05T02:24:15.657Z,0.00
2019-05-05T02:25:15.647Z,0.00
2019-05-05T02:26:15.650Z,0.00
2019-05-05T02:27:15.630Z,0.00
2019-05-05T02:28:15.617Z,0.00
2019-05-05T02:29:15.611Z,0.00
2019-05-05T02:30:16.400Z,0.00
2019-05-05T02:31:16.702Z,0.00
2019-05-05T02:32:15.983Z,0.00
2019-05-05T02:33:15.846Z,0.00
2019-05-05T02:34:16.522Z,0.00
2019-05-05T02:35:16.399Z,0.00
2019-05-05T02:36:16.088Z,0.00
2019-05-05T02:37:16.121Z,0.00
2019-05-05T02:38:15.875Z,0.00
2019-05-05T02:39:16.138Z,0.00
2019-05-05T02:40:16.113Z,0.00
2019-05-05T02:41:15.651Z,0.00
2019-05-05T02:42:15.455Z,0.00
2019-05-05T02:43:15.451Z,0.00
2019-05-05T02:44:15.697Z,0.00
2019-05-05T02:45:15.755Z,0.00
2019-05-05T02:46:15.410Z,0.00
2019-05-05T02:47:15.745Z,0.00
2019-05-05T02:48:15.631Z,0.00
2019-05-05T02:49:15.476Z,0.00
2019-05-05T02:50:15.624Z,0.00
2019-05-05T02:51:15.445Z,0.00
2019-05-05T02:52:15.378Z,0.00
2019-05-05T02:53:15.334Z,0.00
2019-05-05T02:54:15.323Z,0.00
2019-05-05T02:55:15.309Z,0.00
2019-05-05T02:56:15.301Z,0.00
2019-05-05T02:57:15.303Z,0.00
2019-05-05T02:58:15.279Z,0.00
2019-05-05T02:59:15.272Z,0.00
2019-05-05T03:00:15.252Z,0.00
2019-05-05T03:01:15.245Z,0.00
2019-05-05T03:02:15.264Z,0.00
2019-05-05T03:03:15.219Z,0.00
2019-05-05T03:04:15.226Z,0.00
2019-05-05T03:05:15.196Z,0.00
2019-05-05T03:06:15.188Z,0.00
2019-05-05T03:07:15.181Z,0.00
2019-05-05T03:08:15.181Z,0.00
2019-05-05T03:09:15.152Z,0.00
2019-05-05T03:10:15.142Z,4.00
2019-05-05T03:11:15.132Z,4.00
2019-05-05T03:12:15.119Z,0.00
2019-05-05T03:13:15.122Z,0.00
2019-05-05T03:14:15.094Z,4.00
2019-05-05T03:15:15.089Z,4.00
2019-05-05T03:16:15.074Z,4.00
2019-05-05T03:17:15.071Z,4.00
2019-05-05T03:18:15.078Z,4.00
2019-05-05T03:19:15.050Z,4.00
2019-05-05T03:20:15.029Z,4.00
2019-05-05T03:21:15.028Z,8.00
2019-05-05T03:22:15.010Z,4.00
2019-05-05T03:23:14.995Z,8.00
2019-05-05T03:24:15.001Z,8.00
2019-05-05T03:25:14.971Z,8.00
2019-05-05T03:26:14.960Z,8.00
2019-05-05T03:27:14.954Z,12.00
2019-05-05T03:28:14.946Z,12.00
2019-05-05T03:29:14.946Z,12.00
2019-05-05T03:30:15.584Z,16.00
2019-05-05T03:31:16.049Z,16.00
2019-05-05T03:32:16.044Z,20.00
2019-05-05T03:33:15.943Z,24.00
2019-05-05T03:34:16.280Z,24.00
2019-05-05T03:35:14.861Z,24.00
2019-05-05T03:36:14.849Z,32.00
2019-05-05T03:37:14.836Z,32.00
2019-05-05T03:38:14.829Z,36.00
2019-05-05T03:39:14.815Z,40.00
2019-05-05T03:40:14.939Z,44.00
2019-05-05T03:41:14.791Z,44.00
2019-05-05T03:42:14.784Z,48.00
2019-05-05T03:43:14.772Z,52.00
2019-05-05T03:44:14.762Z,60.00
2019-05-05T03:45:14.774Z,64.00
2019-05-05T03:46:14.738Z,72.00
2019-05-05T03:47:14.732Z,76.00
2019-05-05T03:48:14.715Z,80.00
2019-05-05T03:49:14.702Z,88.00
2019-05-05T03:50:14.694Z,92.00
2019-05-05T03:51:18.817Z,100.00
2019-05-05T03:52:15.666Z,104.00
2019-05-05T03:53:14.657Z,112.00
2019-05-05T03:54:14.863Z,116.00
2019-05-05T03:55:14.633Z,124.00
2019-05-05T03:56:14.642Z,128.00
2019-05-05T03:57:14.616Z,136.00
2019-05-05T03:58:14.805Z,144.00
2019-05-05T03:59:14.588Z,148.00
2019-05-05T04:00:14.576Z,152.00
2019-05-05T04:01:14.613Z,168.00
2019-05-05T04:02:14.565Z,180.00
2019-05-05T04:03:14.742Z,188.00
2019-05-05T04:04:14.532Z,196.00
2019-05-05T04:05:14.669Z,200.00
2019-05-05T04:06:14.692Z,212.00
2019-05-05T04:07:14.515Z,216.00
2019-05-05T04:08:14.602Z,224.00
2019-05-05T04:09:14.475Z,236.00
2019-05-05T04:10:14.464Z,240.00
2019-05-05T04:11:14.464Z,252.00
2019-05-05T04:12:14.465Z,256.00
2019-05-05T04:13:14.434Z,256.00
2019-05-05T04:14:14.420Z,244.00
2019-05-05T04:15:14.407Z,236.00
2019-05-05T04:16:14.396Z,244.00
2019-05-05T04:17:14.402Z,248.00
2019-05-05T04:18:14.631Z,248.00
2019-05-05T04:19:14.370Z,256.00
2019-05-05T04:20:14.350Z,264.00
2019-05-05T04:21:14.614Z,276.00
2019-05-05T04:22:14.361Z,300.00
2019-05-05T04:23:14.331Z,316.00
2019-05-05T04:24:14.625Z,316.00
2019-05-05T04:25:14.295Z,308.00
2019-05-05T04:26:14.408Z,328.00
2019-05-05T04:27:14.805Z,392.00
2019-05-05T04:28:14.281Z,416.00
2019-05-05T04:29:14.259Z,472.00
2019-05-05T04:30:14.437Z,488.00
2019-05-05T04:31:14.229Z,460.00
2019-05-05T04:32:14.317Z,444.00
2019-05-05T04:33:14.469Z,456.00
2019-05-05T04:34:14.194Z,500.00
2019-05-05T04:35:14.261Z,420.00
2019-05-05T04:36:14.568Z,400.00
2019-05-05T04:37:14.879Z,424.00
2019-05-05T04:38:14.165Z,496.00
2019-05-05T04:39:14.476Z,500.00
2019-05-05T04:40:14.806Z,536.00
2019-05-05T04:41:14.218Z,464.00
2019-05-05T04:42:14.281Z,480.00
2019-05-05T04:43:14.441Z,644.00
2019-05-05T04:44:14.930Z,808.00
2019-05-05T04:45:14.738Z,728.00
2019-05-05T04:46:14.209Z,664.00
2019-05-05T04:47:14.572Z,652.00
2019-05-05T04:48:14.038Z,640.00
2019-05-05T04:49:14.081Z,540.00
2019-05-05T04:50:14.624Z,524.00
2019-05-05T04:51:14.035Z,552.00
2019-05-05T04:52:14.390Z,656.00
2019-05-05T04:53:13.985Z,652.00
2019-05-05T04:54:14.245Z,720.00
2019-05-05T04:55:13.974Z,884.00
2019-05-05T04:56:14.192Z,1088.00
2019-05-05T04:57:14.980Z,1244.00
2019-05-05T04:58:13.924Z,1316.00
2019-05-05T04:59:14.453Z,1280.00
2019-05-05T05:00:13.942Z,1324.00
2019-05-05T05:01:13.891Z,1304.00
2019-05-05T05:02:14.416Z,1404.00
2019-05-05T05:03:13.868Z,1328.00
2019-05-05T05:04:13.900Z,1684.00
2019-05-05T05:05:14.472Z,2252.00
2019-05-05T05:06:14.669Z,2168.00
2019-05-05T05:07:13.823Z,1876.00
2019-05-05T05:08:14.029Z,2036.00
2019-05-05T05:09:14.635Z,2120.00
2019-05-05T05:10:13.998Z,1632.00
2019-05-05T05:11:14.257Z,1540.00
2019-05-05T05:12:14.646Z,1264.00
2019-05-05T05:13:13.991Z,1484.00
2019-05-05T05:14:14.402Z,1196.00
2019-05-05T05:15:14.573Z,1592.00
2019-05-05T05:16:14.017Z,1600.00
2019-05-05T05:17:14.149Z,2596.00
2019-05-05T05:18:14.746Z,2152.00
2019-05-05T05:19:13.925Z,2252.00
2019-05-05T05:20:14.183Z,1972.00
2019-05-05T05:21:14.552Z,3112.00
2019-05-05T05:22:13.805Z,2432.00
2019-05-05T05:23:14.245Z,2952.00
2019-05-05T05:24:14.662Z,3452.00
2019-05-05T05:25:13.755Z,3604.00
2019-05-05T05:26:13.980Z,3596.00
2019-05-05T05:27:13.934Z,3040.00
2019-05-05T05:28:14.316Z,3252.00
2019-05-05T05:29:15.088Z,3312.00
2019-05-05T05:30:13.904Z,3480.00
2019-05-05T05:31:14.128Z,2800.00
2019-05-05T05:32:15.478Z,2656.00
2019-05-05T05:33:14.961Z,3788.00
2019-05-05T05:34:14.909Z,3212.00
2019-05-05T05:35:14.237Z,3172.00
2019-05-05T05:36:14.402Z,3144.00
2019-05-05T05:37:13.577Z,3724.00
2019-05-05T05:38:14.149Z,4680.00
2019-05-05T05:39:13.982Z,4264.00
2019-05-05T05:40:14.412Z,4112.00
2019-05-05T05:41:13.776Z,3760.00
2019-05-05T05:42:13.788Z,2676.00
2019-05-05T05:43:13.936Z,3344.00
2019-05-05T05:44:14.027Z,4528.00
2019-05-05T05:45:14.578Z,3584.00
2019-05-05T05:46:13.646Z,5296.00
2019-05-05T05:47:14.053Z,4796.00
2019-05-05T05:48:14.393Z,5696.00
2019-05-05T05:49:13.589Z,5576.00
2019-05-05T05:50:14.285Z,5460.00
2019-05-05T05:51:14.616Z,5316.00
2019-05-05T05:52:18.909Z,5384.00
2019-05-05T05:53:14.324Z,5576.00
2019-05-05T05:54:14.149Z,5700.00
2019-05-05T05:55:14.581Z,5680.00
2019-05-05T05:56:13.588Z,5616.00
2019-05-05T05:57:13.685Z,5148.00
2019-05-05T05:58:14.118Z,5964.00
2019-05-05T05:59:14.096Z,6004.00
2019-05-05T06:00:14.459Z,5800.00
2019-05-05T06:01:14.745Z,5808.00
2019-05-05T06:02:15.531Z,5744.00
2019-05-05T06:03:14.116Z,5468.00
2019-05-05T06:04:14.512Z,4420.00
2019-05-05T06:05:14.727Z,4360.00
2019-05-05T06:06:13.838Z,4644.00
2019-05-05T06:07:14.223Z,5028.00
2019-05-05T06:08:14.233Z,3832.00
2019-05-05T06:09:14.841Z,4940.00
2019-05-05T06:10:22.132Z,4268.00
2019-05-05T06:11:14.096Z,3736.00
2019-05-05T06:12:14.161Z,3312.00
2019-05-05T06:13:15.304Z,3596.00
2019-05-05T06:14:14.544Z,3776.00
2019-05-05T06:15:14.213Z,3180.00
2019-05-05T06:16:14.555Z,3460.00
2019-05-05T06:17:13.506Z,3560.00
2019-05-05T06:18:13.797Z,3796.00
2019-05-05T06:19:14.072Z,4048.00
2019-05-05T06:20:14.544Z,3904.00
2019-05-05T06:21:13.801Z,4192.00
2019-05-05T06:22:15.201Z,5224.00
2019-05-05T06:23:14.757Z,5864.00
2019-05-05T06:24:13.595Z,6100.00
2019-05-05T06:25:15.882Z,6588.00
2019-05-05T06:26:15.252Z,6608.00
2019-05-05T06:27:14.308Z,6652.00
2019-05-05T06:28:14.469Z,6608.00
2019-05-05T06:29:14.601Z,4656.00
2019-05-05T06:30:13.825Z,5220.00
2019-05-05T06:31:13.994Z,5208.00
2019-05-05T06:32:14.651Z,6656.00
2019-05-05T06:33:13.726Z,5428.00
2019-05-05T06:34:13.956Z,6268.00
2019-05-05T06:35:13.849Z,5244.00
2019-05-05T06:36:14.176Z,4664.00
2019-05-05T06:37:14.550Z,5340.00
2019-05-05T06:38:13.605Z,6072.00
2019-05-05T06:39:13.671Z,6816.00
2019-05-05T06:40:13.900Z,7436.00
2019-05-05T06:41:14.543Z,7544.00
2019-05-05T06:42:13.617Z,7392.00
2019-05-05T06:43:13.881Z,7324.00
2019-05-05T06:44:14.211Z,5876.00
2019-05-05T06:45:14.399Z,6980.00
2019-05-05T06:46:14.523Z,6844.00
2019-05-05T06:47:13.565Z,6880.00
2019-05-05T06:48:13.553Z,7584.00
2019-05-05T06:49:13.631Z,7480.00
2019-05-05T06:50:13.968Z,7416.00
2019-05-05T06:51:14.020Z,7272.00
2019-05-05T06:52:14.293Z,7212.00
2019-05-05T06:53:13.578Z,7560.00
2019-05-05T06:54:13.731Z,7648.00
2019-05-05T06:55:14.102Z,7652.00
2019-05-05T06:56:14.398Z,7704.00
2019-05-05T06:57:13.649Z,7636.00
2019-05-05T06:58:13.700Z,7772.00
2019-05-05T06:59:13.712Z,7824.00
2019-05-05T07:00:13.950Z,7836.00
2019-05-05T07:01:14.308Z,7852.00
2019-05-05T07:02:14.397Z,7896.00
2019-05-05T07:03:13.912Z,7904.00
2019-05-05T07:04:13.979Z,7896.00
2019-05-05T07:05:14.306Z,7860.00
2019-05-05T07:06:14.169Z,7880.00
2019-05-05T07:07:14.384Z,7936.00
2019-05-05T07:08:13.828Z,7972.00
2019-05-05T07:09:13.874Z,8056.00
2019-05-05T07:10:14.088Z,8080.00
2019-05-05T07:11:14.360Z,8440.00
2019-05-05T07:12:13.843Z,9428.00
2019-05-05T07:13:14.035Z,8904.00
2019-05-05T07:14:14.304Z,7820.00
2019-05-05T07:15:14.377Z,7996.00
2019-05-05T07:16:14.717Z,8144.00
2019-05-05T07:17:14.152Z,7704.00
2019-05-05T07:18:14.244Z,8188.00
2019-05-05T07:19:14.712Z,8280.00
2019-05-05T07:20:13.577Z,8076.00
2019-05-05T07:21:14.263Z,7316.00
2019-05-05T07:22:14.084Z,7700.00
2019-05-05T07:23:14.304Z,8120.00
2019-05-05T07:24:14.356Z,7884.00
2019-05-05T07:25:13.713Z,8144.00
2019-05-05T07:26:14.265Z,8348.00
2019-05-05T07:27:13.878Z,7684.00
2019-05-05T07:28:14.509Z,8380.00
2019-05-05T07:29:14.615Z,8208.00
2019-05-05T07:30:13.722Z,8908.00
2019-05-05T07:31:14.203Z,8800.00
2019-05-05T07:32:14.175Z,8696.00
2019-05-05T07:33:12.165Z,8668.00
2019-05-05T07:34:13.677Z,8848.00
2019-05-05T07:35:14.444Z,7928.00
2019-05-05T07:36:14.424Z,8572.00
2019-05-05T07:37:14.266Z,7644.00
2019-05-05T07:38:13.843Z,8076.00
2019-05-05T07:39:14.234Z,6932.00
2019-05-05T07:40:13.552Z,7332.00
2019-05-05T07:41:14.022Z,6536.00
2019-05-05T07:42:13.745Z,8580.00
2019-05-05T07:43:12.051Z,9524.00
2019-05-05T07:44:25.099Z,8372.00
2019-05-05T07:45:22.505Z,5028.00
2019-05-05T07:46:13.549Z,3196.00
2019-05-05T07:47:12.009Z,8484.00
2019-05-05T07:48:13.821Z,8464.00
2019-05-05T07:49:13.915Z,8908.00
2019-05-05T07:50:26.443Z,9108.00
2019-05-05T07:51:14.143Z,4464.00
2019-05-05T07:52:12.084Z,3312.00
2019-05-05T07:53:15.039Z,3156.00
2019-05-05T07:54:14.492Z,5804.00
2019-05-05T07:55:11.918Z,3444.00
2019-05-05T07:56:14.262Z,3496.00
2019-05-05T07:57:11.898Z,3232.00
2019-05-05T07:58:13.935Z,2600.00
2019-05-05T07:59:11.875Z,2296.00
2019-05-05T08:00:11.878Z,2260.00
2019-05-05T08:01:13.865Z,8632.00
2019-05-05T08:02:11.847Z,6360.00
2019-05-05T08:03:14.213Z,6712.00
2019-05-05T08:04:13.703Z,2596.00
2019-05-05T08:05:13.953Z,2224.00
2019-05-05T08:06:11.790Z,2292.00
2019-05-05T08:07:11.779Z,2184.00
2019-05-05T08:08:13.722Z,1876.00
2019-05-05T08:09:11.757Z,1824.00
2019-05-05T08:10:13.698Z,1808.00
2019-05-05T08:11:11.749Z,2100.00
2019-05-05T08:12:13.720Z,2456.00
2019-05-05T08:13:13.829Z,10104.00
2019-05-05T08:14:11.700Z,2816.00
2019-05-05T08:15:11.708Z,2144.00
2019-05-05T08:16:11.680Z,2160.00
2019-05-05T08:17:11.664Z,2416.00
2019-05-05T08:18:13.741Z,2268.00
2019-05-05T08:19:13.638Z,2456.00
2019-05-05T08:20:11.647Z,2576.00
2019-05-05T08:21:13.144Z,3004.00
2019-05-05T08:22:11.608Z,9616.00
2019-05-05T08:23:26.004Z,10396.00
2019-05-05T08:24:13.981Z,10076.00
2019-05-05T08:25:11.589Z,10340.00
2019-05-05T08:26:13.604Z,3500.00
2019-05-05T08:27:11.555Z,2960.00
2019-05-05T08:28:11.539Z,2848.00
2019-05-05T08:29:13.575Z,2404.00
2019-05-05T08:30:11.537Z,2684.00
2019-05-05T08:31:11.504Z,2656.00
2019-05-05T08:32:13.486Z,8316.00
2019-05-05T08:33:11.482Z,10296.00
2019-05-05T08:34:11.470Z,9468.00
2019-05-05T08:35:11.489Z,3248.00
2019-05-05T08:36:11.447Z,2388.00
2019-05-05T08:37:11.437Z,2292.00
2019-05-05T08:38:13.676Z,2220.00
2019-05-05T08:39:11.413Z,2240.00
2019-05-05T08:40:11.409Z,2268.00
2019-05-05T08:41:11.410Z,2376.00
2019-05-05T08:42:11.378Z,2456.00
2019-05-05T08:43:13.669Z,2600.00
2019-05-05T08:44:11.356Z,3112.00
2019-05-05T08:45:13.696Z,3288.00
2019-05-05T08:46:11.342Z,6280.00
2019-05-05T08:47:11.320Z,10964.00
2019-05-05T08:48:11.309Z,11096.00
2019-05-05T08:49:11.303Z,11280.00
2019-05-05T08:50:13.598Z,9148.00
2019-05-05T08:51:11.277Z,8772.00
2019-05-05T08:52:11.263Z,11380.00
2019-05-05T08:53:11.253Z,11136.00
2019-05-05T08:54:11.259Z,10684.00
2019-05-05T08:55:11.247Z,11188.00
2019-05-05T08:56:11.221Z,11308.00
2019-05-05T08:57:11.207Z,10972.00
2019-05-05T08:58:11.195Z,6100.00
2019-05-05T08:59:11.186Z,3188.00
2019-05-05T09:00:11.202Z,3104.00
2019-05-05T09:01:11.163Z,3516.00
2019-05-05T09:02:11.151Z,3540.00
2019-05-05T09:03:11.138Z,8712.00
2019-05-05T09:04:11.127Z,2708.00
2019-05-05T09:05:11.116Z,2396.00
2019-05-05T09:06:11.121Z,2236.00
2019-05-05T09:07:11.100Z,2108.00
2019-05-05T09:08:11.088Z,2024.00
2019-05-05T09:09:11.082Z,2028.00
2019-05-05T09:10:11.080Z,2068.00
2019-05-05T09:11:11.052Z,2048.00
2019-05-05T09:12:11.039Z,2036.00
2019-05-05T09:13:11.026Z,2076.00
2019-05-05T09:14:11.014Z,2156.00
2019-05-05T09:15:11.034Z,2320.00
2019-05-05T09:16:10.992Z,2500.00
2019-05-05T09:17:10.981Z,2740.00
2019-05-05T09:18:10.973Z,2964.00
2019-05-05T09:19:10.963Z,3252.00
2019-05-05T09:20:10.946Z,3488.00
2019-05-05T09:21:10.951Z,3808.00
2019-05-05T09:22:10.924Z,4436.00
2019-05-05T09:23:10.915Z,4004.00
2019-05-05T09:24:10.901Z,3872.00
2019-05-05T09:25:10.906Z,7776.00
2019-05-05T09:26:10.878Z,9464.00
2019-05-05T09:27:10.867Z,9728.00
2019-05-05T09:28:10.859Z,10000.00
2019-05-05T09:29:10.845Z,6648.00
2019-05-05T09:30:10.852Z,6184.00
2019-05-05T09:31:10.823Z,4048.00
2019-05-05T09:32:10.811Z,3376.00
2019-05-05T09:33:10.798Z,2940.00
2019-05-05T09:34:10.791Z,2744.00
2019-05-05T09:35:10.792Z,2648.00
2019-05-05T09:36:10.765Z,3096.00
2019-05-05T09:37:10.754Z,2576.00
2019-05-05T09:38:10.743Z,2664.00
2019-05-05T09:39:10.734Z,2944.00
2019-05-05T09:40:10.753Z,3332.00
2019-05-05T09:41:10.721Z,5376.00
2019-05-05T09:42:10.696Z,5724.00
2019-05-05T09:43:10.688Z,10032.00
2019-05-05T09:44:10.675Z,9420.00
2019-05-05T09:45:10.663Z,3548.00
2019-05-05T09:46:10.668Z,12384.00
2019-05-05T09:47:10.658Z,13280.00
2019-05-05T09:48:10.649Z,12672.00
2019-05-05T09:49:10.618Z,12352.00
2019-05-05T09:50:10.622Z,12256.00
2019-05-05T09:51:10.595Z,12384.00
2019-05-05T09:52:10.591Z,12736.00
2019-05-05T09:53:10.573Z,13216.00
2019-05-05T09:54:14.243Z,13184.00
2019-05-05T09:55:10.569Z,13408.00
2019-05-05T09:56:10.540Z,14080.00
2019-05-05T09:57:10.529Z,14496.00
2019-05-05T09:58:10.522Z,10536.00
2019-05-05T09:59:10.503Z,4260.00
2019-05-05T10:00:10.509Z,6416.00
2019-05-05T10:01:10.482Z,5028.00
2019-05-05T10:02:10.470Z,3920.00
2019-05-05T10:03:10.466Z,3328.00
2019-05-05T10:04:10.452Z,3088.00
2019-05-05T10:05:10.473Z,2880.00
2019-05-05T10:06:10.424Z,2744.00
2019-05-05T10:07:10.412Z,2636.00
2019-05-05T10:08:10.400Z,2500.00
2019-05-05T10:09:10.394Z,2332.00
2019-05-05T10:10:10.381Z,2124.00
2019-05-05T10:11:10.892Z,1960.00
2019-05-05T10:12:10.356Z,1772.00
2019-05-05T10:13:10.344Z,1572.00
2019-05-05T10:14:10.338Z,1364.00
2019-05-05T10:15:10.322Z,1180.00
2019-05-05T10:16:10.327Z,1092.00
2019-05-05T10:17:10.300Z,1036.00
2019-05-05T10:18:10.294Z,1024.00
2019-05-05T10:19:10.277Z,1036.00
2019-05-05T10:20:10.271Z,1068.00
2019-05-05T10:21:10.280Z,1104.00
2019-05-05T10:22:10.240Z,1140.00
2019-05-05T10:23:10.230Z,1196.00
2019-05-05T10:24:10.218Z,1256.00
2019-05-05T10:25:10.207Z,1300.00
2019-05-05T10:26:10.196Z,1344.00
2019-05-05T10:27:10.207Z,1416.00
2019-05-05T10:28:10.177Z,1508.00
2019-05-05T10:29:10.165Z,1556.00
2019-05-05T10:30:10.697Z,1576.00
2019-05-05T10:31:10.139Z,1608.00
2019-05-05T10:32:10.158Z,1652.00
2019-05-05T10:33:10.119Z,1696.00
2019-05-05T10:34:10.105Z,1744.00
2019-05-05T10:35:10.097Z,1812.00
2019-05-05T10:36:10.082Z,1876.00
2019-05-05T10:37:10.071Z,1964.00
2019-05-05T10:38:10.085Z,2084.00
2019-05-05T10:39:10.049Z,2224.00
2019-05-05T10:40:10.037Z,2348.00
2019-05-05T10:41:10.026Z,2452.00
2019-05-05T10:42:10.016Z,2540.00
2019-05-05T10:43:10.024Z,2604.00
2019-05-05T10:44:09.994Z,2760.00
2019-05-05T10:45:09.982Z,3112.00
2019-05-05T10:46:09.970Z,3396.00
2019-05-05T10:47:09.959Z,3360.00
2019-05-05T10:48:09.973Z,3756.00
2019-05-05T10:49:09.936Z,3672.00
2019-05-05T10:50:09.928Z,4180.00
2019-05-05T10:51:09.913Z,4260.00
2019-05-05T10:52:09.917Z,3348.00
2019-05-05T10:53:09.892Z,3692.00
2019-05-05T10:54:09.900Z,5920.00
2019-05-05T10:55:09.871Z,5092.00
2019-05-05T10:56:09.857Z,9528.00
2019-05-05T10:57:09.845Z,38272.00
2019-05-05T10:58:09.833Z,26464.00
2019-05-05T10:59:09.852Z,6328.00
2019-05-05T11:00:12.595Z,5588.00
2019-05-05T11:01:10.801Z,5952.00
2019-05-05T11:02:09.787Z,7048.00
2019-05-05T11:03:09.783Z,8936.00
2019-05-05T11:04:09.766Z,5148.00
2019-05-05T11:05:09.772Z,7828.00
2019-05-05T11:06:09.742Z,6152.00
2019-05-05T11:07:09.731Z,5376.00
2019-05-05T11:08:09.726Z,4308.00
2019-05-05T11:09:09.707Z,4564.00
2019-05-05T11:10:09.720Z,4436.00
2019-05-05T11:11:09.686Z,4476.00
2019-05-05T11:12:09.673Z,5132.00
2019-05-05T11:13:09.661Z,4520.00
2019-05-05T11:14:09.655Z,4380.00
2019-05-05T11:15:09.639Z,4572.00
2019-05-05T11:16:09.647Z,4380.00
2019-05-05T11:17:09.622Z,4064.00
2019-05-05T11:18:09.607Z,4028.00
2019-05-05T11:19:09.600Z,4428.00
2019-05-05T11:20:09.583Z,5748.00
2019-05-05T11:21:09.586Z,5924.00
2019-05-05T11:22:09.560Z,5596.00
2019-05-05T11:23:09.548Z,5904.00
2019-05-05T11:24:09.537Z,8612.00
2019-05-05T11:25:09.528Z,35488.00
2019-05-05T11:26:09.550Z,13012.00
2019-05-05T11:27:09.505Z,8216.00
2019-05-05T11:28:09.495Z,7844.00
2019-05-05T11:29:09.479Z,8424.00
2019-05-05T11:30:09.473Z,15104.00
2019-05-05T11:31:09.458Z,11492.00
2019-05-05T11:32:09.460Z,60000.00
2019-05-05T11:33:09.434Z,19584.00
2019-05-05T11:34:09.423Z,18272.00
2019-05-05T11:35:09.412Z,36416.00
2019-05-05T11:36:09.400Z,16544.00
2019-05-05T11:37:09.417Z,12472.00
2019-05-05T11:38:09.379Z,12780.00
2019-05-05T11:39:09.366Z,10536.00
2019-05-05T11:40:09.358Z,10544.00
2019-05-05T11:41:09.345Z,9400.00
2019-05-05T11:42:09.334Z,10440.00
2019-05-05T11:43:09.338Z,9932.00
2019-05-05T11:44:09.309Z,9652.00
2019-05-05T11:45:09.300Z,8316.00
2019-05-05T11:46:09.288Z,8156.00
2019-05-05T11:47:09.274Z,4344.00
2019-05-05T11:48:09.291Z,3948.00
2019-05-05T11:49:09.251Z,3720.00
2019-05-05T11:50:09.239Z,3276.00
2019-05-05T11:51:09.228Z,2848.00
2019-05-05T11:52:09.217Z,2612.00
2019-05-05T11:53:09.207Z,2628.00
2019-05-05T11:54:09.214Z,3140.00
2019-05-05T11:55:12.138Z,3792.00
2019-05-05T11:56:09.172Z,5352.00
2019-05-05T11:57:09.160Z,8672.00
2019-05-05T11:58:09.151Z,8220.00
2019-05-05T11:59:09.165Z,7948.00
2019-05-05T12:00:09.125Z,6132.00
2019-05-05T12:01:09.113Z,7612.00
2019-05-05T12:02:09.106Z,7240.00
2019-05-05T12:03:09.090Z,3744.00
2019-05-05T12:04:09.084Z,3356.00
2019-05-05T12:05:09.097Z,3412.00
2019-05-05T12:06:09.057Z,3984.00
2019-05-05T12:07:09.045Z,3548.00
2019-05-05T12:08:09.034Z,3280.00
2019-05-05T12:09:09.022Z,3344.00
2019-05-05T12:10:09.014Z,7592.00
2019-05-05T12:11:09.020Z,7592.00
2019-05-05T12:12:08.992Z,3556.00
2019-05-05T12:13:08.979Z,4756.00
2019-05-05T12:14:08.969Z,7964.00
2019-05-05T12:15:08.957Z,7196.00
2019-05-05T12:16:08.961Z,5584.00
2019-05-05T12:17:08.931Z,5000.00
2019-05-05T12:18:08.920Z,4084.00
2019-05-05T12:19:08.912Z,3888.00
2019-05-05T12:20:08.908Z,3688.00
2019-05-05T12:21:08.915Z,3776.00
2019-05-05T12:22:08.878Z,3664.00
2019-05-05T12:23:08.865Z,3536.00
2019-05-05T12:24:08.854Z,3336.00
2019-05-05T12:25:22.021Z,3244.00
2019-05-05T12:26:09.859Z,3244.00